Time;durP1;ratioP1;P1;durP2;ratioP2;P2;SDS_P1;SDS_P2;PMS_P1;PMS_P2;Temp;Humidity;BMP_temperature;BMP_pressure;BME280_temperature;BME280_humidity;BME280_pressure;Samples;Min_cycle;Max_cycle;Signal;HPM_P1;HPM_P2
2022/11/28 06:32:41;;;;;;;16.65;8.05;;;;;;;4.33;79.91;97876.59;6176344;23;20043;31
2022/11/28 06:35:07;;;;;;;18.63;9.07;;;;;;;4.33;80.07;97893.00;6122472;23;20022;-65
2022/11/28 06:37:32;;;;;;;18.55;9.10;;;;;;;4.29;79.24;97902.69;6098447;23;20014;-65
2022/11/28 06:39:58;;;;;;;19.48;9.63;;;;;;;4.32;79.46;97930.28;6124281;23;20002;-65
2022/11/28 06:42:23;;;;;;;20.42;9.63;;;;;;;4.29;79.23;97927.84;6123705;23;20016;-65
2022/11/28 06:44:48;;;;;;;18.90;9.27;;;;;;;4.28;79.60;97920.97;6099602;23;20325;-65
2022/11/28 06:47:14;;;;;;;17.73;8.65;;;;;;;4.28;79.87;97898.44;6125602;23;20012;-65
2022/11/28 06:49:39;;;;;;;16.27;8.63;;;;;;;4.29;80.38;97892.31;6124704;23;20012;-64
2022/11/28 06:52:04;;;;;;;16.67;8.18;;;;;;;4.35;79.80;97903.34;6124118;23;20012;-65
2022/11/28 06:54:30;;;;;;;18.08;9.30;;;;;;;4.34;79.19;97936.25;6123947;23;20009;-63
2022/11/28 06:56:56;;;;;;;21.55;11.43;;;;;;;4.26;79.10;97930.56;6125404;23;20021;-62
2022/11/28 06:59:21;;;;;;;18.58;9.75;;;;;;;4.27;78.93;97919.28;6126214;23;20005;-65
2022/11/28 07:01:46;;;;;;;20.38;9.32;;;;;;;4.27;79.72;97916.69;6123293;23;20009;-66
2022/11/28 07:04:12;;;;;;;16.38;8.65;;;;;;;4.32;80.38;97886.16;6123572;23;20377;-70
2022/11/28 07:06:37;;;;;;;17.48;9.18;;;;;;;4.31;79.73;97888.84;6099014;23;20002;-67
2022/11/28 07:09:03;;;;;;;19.40;9.85;;;;;;;4.31;79.91;97883.63;6099640;23;20006;-66
2022/11/28 07:11:29;;;;;;;17.80;8.75;;;;;;;4.34;79.73;97893.88;6099963;23;20085;-66
2022/11/28 07:13:55;;;;;;;17.65;8.88;;;;;;;4.31;79.28;97884.47;6075886;23;19998;-67
2022/11/28 07:16:30;;;;;;;18.90;9.27;;;;;;;4.36;79.98;97892.88;6098718;23;20005;-66
2022/11/28 07:18:56;;;;;;;19.50;9.65;;;;;;;4.39;79.58;97905.69;6099538;23;20133;-65
2022/11/28 07:21:22;;;;;;;16.73;9.07;;;;;;;4.41;80.27;97895.25;6099372;23;20030;-66
2022/11/28 07:23:47;;;;;;;20.30;9.70;;;;;;;4.40;80.03;97891.78;6098539;23;20006;-65
2022/11/28 07:26:14;;;;;;;17.52;8.43;;;;;;;4.46;79.91;97893.25;6099459;23;20005;-65
2022/11/28 07:28:40;;;;;;;18.20;9.32;;;;;;;4.49;79.47;97903.50;6099634;23;20506;-65
2022/11/28 07:31:10;;;;;;;18.40;9.15;;;;;;;4.50;80.06;97903.41;6099769;23;20001;-65
2022/11/28 07:33:36;;;;;;;18.10;9.32;;;;;;;4.51;79.54;97905.13;6099507;23;20053;-65
2022/11/28 07:36:03;;;;;;;18.95;8.77;;;;;;;4.56;79.15;97909.25;6125352;23;20053;-65
2022/11/28 07:38:28;;;;;;;18.05;8.90;;;;;;;4.60;79.17;97916.81;6125532;23;20002;-65
2022/11/28 07:40:54;;;;;;;16.40;8.02;;;;;;;4.61;79.08;97915.91;6125291;23;20010;-64
2022/11/28 07:43:19;;;;;;;14.88;8.13;;;;;;;4.65;79.38;97919.19;6125361;23;20002;-65
2022/11/28 07:45:44;;;;;;;16.02;8.35;;;;;;;4.69;79.56;97925.91;6125492;23;20390;-65
2022/11/28 07:48:10;;;;;;;13.80;8.02;;;;;;;4.72;79.09;97917.97;6124672;23;20013;-64
2022/11/28 07:50:38;;;;;;;15.18;7.90;;;;;;;4.76;78.99;97911.69;6099050;23;20368;-64
2022/11/28 07:53:04;;;;;;;17.15;8.80;;;;;;;4.79;78.86;97923.72;6125128;23;20052;-65
2022/11/28 07:55:29;;;;;;;15.50;7.85;;;;;;;4.82;78.44;97911.41;6124724;23;20375;-65
2022/11/28 07:57:54;;;;;;;16.60;7.82;;;;;;;4.86;78.40;97912.09;6099106;23;20005;-64
2022/11/28 08:00:20;;;;;;;16.75;8.55;;;;;;;4.88;78.76;97905.03;6125098;23;20005;-65
2022/11/28 08:02:46;;;;;;;17.10;8.55;;;;;;;4.90;78.25;97898.84;6125225;23;20009;-65
2022/11/28 08:05:11;;;;;;;16.42;8.95;;;;;;;4.92;77.88;97907.44;6125442;23;20001;-64
2022/11/28 08:07:37;;;;;;;18.50;8.93;;;;;;;4.95;77.74;97911.59;6098883;23;20013;-65
2022/11/28 08:10:03;;;;;;;14.43;7.72;;;;;;;4.98;77.75;97922.69;6125228;23;20068;-65
2022/11/28 08:12:28;;;;;;;15.48;7.85;;;;;;;5.00;77.77;97915.66;6099662;23;20021;-66
2022/11/28 08:14:54;;;;;;;18.23;9.25;;;;;;;5.04;77.19;97918.13;6124243;23;20313;-64
2022/11/28 08:17:19;;;;;;;16.20;8.35;;;;;;;5.07;77.58;97915.38;6124167;23;20068;-65
2022/11/28 08:19:44;;;;;;;16.98;8.63;;;;;;;5.08;77.19;97917.03;6125084;23;20458;-65
2022/11/28 08:22:10;;;;;;;16.52;8.73;;;;;;;5.11;77.15;97916.88;6124907;23;20010;-65
2022/11/28 08:24:35;;;;;;;15.50;8.32;;;;;;;5.13;77.17;97913.28;6124447;23;20320;-65
2022/11/28 08:27:00;;;;;;;18.85;8.90;;;;;;;5.16;77.20;97914.88;6124710;23;20009;-65
2022/11/28 08:29:26;;;;;;;21.05;9.73;;;;;;;5.17;76.94;97907.00;6099232;23;20339;-64
2022/11/28 08:31:51;;;;;;;16.08;8.35;;;;;;;5.22;76.99;97901.56;6099183;23;20014;-65
2022/11/28 08:34:16;;;;;;;16.02;8.00;;;;;;;5.26;76.94;97908.28;6124598;23;20006;-65
2022/11/28 08:36:42;;;;;;;16.48;8.35;;;;;;;5.32;77.12;97907.13;6098378;23;20005;-65
2022/11/28 08:39:07;;;;;;;14.68;8.02;;;;;;;5.34;76.56;97907.91;6124976;23;20006;-64
2022/11/28 08:41:33;;;;;;;14.60;8.15;;;;;;;5.38;76.10;97901.63;6075260;23;20012;-64
2022/11/28 08:43:58;;;;;;;16.35;8.55;;;;;;;5.42;76.65;97905.72;6124903;23;20309;-65
2022/11/28 08:46:24;;;;;;;14.98;8.55;;;;;;;5.46;75.88;97899.44;6124395;23;20006;-65
2022/11/28 08:48:50;;;;;;;16.73;8.77;;;;;;;5.50;76.27;97905.31;6098841;23;20001;-65
2022/11/28 08:51:17;;;;;;;17.08;8.73;;;;;;;5.56;76.00;97905.00;6051436;23;20200;-65
2022/11/28 08:53:42;;;;;;;17.35;9.75;;;;;;;5.59;75.66;97910.06;6098604;23;20005;-65
2022/11/28 08:56:08;;;;;;;15.73;8.25;;;;;;;5.64;75.78;97905.44;6098707;23;20006;-65
2022/11/28 08:58:33;;;;;;;17.40;9.18;;;;;;;5.68;75.03;97913.00;6124442;23;20009;-65
2022/11/28 09:00:58;;;;;;;15.90;8.02;;;;;;;5.75;75.10;97905.72;6098810;23;20002;-64
2022/11/28 09:03:24;;;;;;;15.68;8.35;;;;;;;5.79;74.78;97904.63;6124459;23;20454;-65
2022/11/28 09:05:49;;;;;;;16.23;7.88;;;;;;;5.86;74.56;97911.19;6099250;23;20006;-64
2022/11/28 09:08:16;;;;;;;15.80;8.73;;;;;;;5.90;74.25;97899.66;6098036;23;20499;-64
2022/11/28 09:10:41;;;;;;;14.68;8.05;;;;;;;5.98;74.50;97906.25;6075050;23;20010;-64
2022/11/28 09:13:07;;;;;;;16.67;8.52;;;;;;;6.05;74.32;97908.44;6124677;23;20020;-64
2022/11/28 09:15:33;;;;;;;15.77;8.30;;;;;;;6.11;73.78;97905.50;6074944;23;20010;-64
2022/11/28 09:17:58;;;;;;;16.65;8.30;;;;;;;6.14;73.76;97905.31;6124575;23;20013;-64
2022/11/28 09:20:23;;;;;;;16.92;8.07;;;;;;;6.18;73.72;97901.63;6124331;23;20463;-64
2022/11/28 09:22:49;;;;;;;15.27;9.00;;;;;;;6.23;72.98;97895.31;6124428;23;20002;-64
2022/11/28 09:25:14;;;;;;;16.27;8.10;;;;;;;6.27;73.29;97896.84;6098654;23;20010;-65
2022/11/28 09:27:40;;;;;;;15.98;7.95;;;;;;;6.33;73.16;97894.72;6125065;23;20006;-64
2022/11/28 09:30:05;;;;;;;15.02;8.18;;;;;;;6.36;72.45;97899.75;6123889;23;20006;-64
2022/11/28 09:32:31;;;;;;;16.17;8.20;;;;;;;6.41;72.84;97891.69;6098154;23;20340;-65
2022/11/28 09:34:56;;;;;;;15.30;8.27;;;;;;;6.46;72.48;97894.84;6098650;23;20068;-64
2022/11/28 09:37:22;;;;;;;14.63;7.50;;;;;;;6.51;72.23;97882.44;6124636;23;20317;-64
2022/11/28 09:39:47;;;;;;;15.02;8.10;;;;;;;6.56;72.06;97890.81;6124459;23;20002;-64
2022/11/28 09:42:17;;;;;;;15.68;7.57;;;;;;;6.61;71.99;97887.94;6074222;23;20450;-65
2022/11/28 09:44:46;;;;;;;15.55;7.78;;;;;;;6.65;71.93;97884.25;6098435;23;20002;-65
2022/11/28 09:47:17;;;;;;;15.40;8.43;;;;;;;6.66;71.07;97880.69;6098971;23;20006;-65
2022/11/28 09:49:49;;;;;;;15.07;8.38;;;;;;;6.72;71.58;97884.72;6099571;23;20391;-64
2022/11/28 09:52:22;;;;;;;15.38;8.20;;;;;;;6.74;71.51;97877.63;6075202;23;20072;-64
2022/11/28 09:54:59;;;;;;;16.77;8.50;;;;;;;6.78;71.52;97890.41;6075019;23;20096;-65
2022/11/28 09:57:36;;;;;;;14.80;8.05;;;;;;;6.83;70.84;97888.38;6098867;23;20028;-65
2022/11/28 10:00:02;;;;;;;17.40;8.73;;;;;;;6.85;70.76;97886.53;6074993;23;20013;-65
2022/11/28 10:02:42;;;;;;;17.95;9.43;;;;;;;6.89;70.90;97885.41;6098070;23;20005;-65
2022/11/28 10:05:26;;;;;;;16.17;7.97;;;;;;;6.94;71.17;97892.94;6075028;23;20344;-64
2022/11/28 10:08:31;;;;;;;16.70;8.85;;;;;;;6.97;70.59;97892.78;6124530;23;20006;-64
2022/11/28 10:11:14;;;;;;;16.38;8.18;;;;;;;7.02;70.21;97898.56;5982401;23;20012;-63
2022/11/28 10:14:03;;;;;;;15.88;8.80;;;;;;;7.11;73.69;97898.00;5961439;23;20008;-63
2022/11/28 10:16:37;;;;;;;13.57;7.55;;;;;;;7.21;71.94;97897.47;6008519;23;20012;-64
2022/11/28 10:19:04;;;;;;;18.25;9.27;;;;;;;7.22;70.01;97886.09;6008467;23;20088;-64
2022/11/28 10:21:41;;;;;;;16.45;8.75;;;;;;;7.24;69.41;97892.06;5984560;23;20091;-64
2022/11/28 10:24:12;;;;;;;17.48;9.57;;;;;;;7.26;69.77;97885.84;5939791;23;20008;-64
2022/11/28 10:26:40;;;;;;;16.58;9.18;;;;;;;7.26;68.51;97891.06;5984736;23;20012;-64
2022/11/28 10:29:28;;;;;;;17.00;9.63;;;;;;;7.26;68.56;97893.66;5962204;23;20106;-64
2022/11/28 10:31:55;;;;;;;15.57;8.63;;;;;;;7.27;68.69;97878.84;5984270;23;20015;-64
2022/11/28 10:34:25;;;;;;;17.50;9.82;;;;;;;7.29;69.21;97880.41;5960921;23;20558;-64
2022/11/28 10:36:54;;;;;;;16.90;9.63;;;;;;;7.32;68.50;97882.84;6008385;23;20018;-64
2022/11/28 10:39:19;;;;;;;16.45;9.35;;;;;;;7.32;68.37;97876.78;5984755;23;20087;-65
2022/11/28 10:42:13;;;;;;;16.92;9.18;;;;;;;7.37;68.93;97877.38;6008383;23;20463;-65
2022/11/28 10:45:10;;;;;;;18.15;10.20;;;;;;;7.38;68.21;97887.69;5983913;23;20012;-65
2022/11/28 10:47:48;;;;;;;16.88;9.55;;;;;;;7.42;68.58;97883.13;6122875;23;20391;-66
2022/11/28 10:50:37;;;;;;;18.17;9.93;;;;;;;7.42;67.89;97888.34;6077303;23;20317;-66
2022/11/28 10:53:41;;;;;;;17.30;9.23;;;;;;;7.44;68.31;97891.72;6100621;23;20455;-63
2022/11/28 10:56:08;;;;;;;18.13;9.52;;;;;;;7.45;67.50;97888.16;6007725;23;20011;-64
2022/11/28 10:58:45;;;;;;;16.30;9.88;;;;;;;7.48;68.70;97874.09;6008060;23;20391;-65
2022/11/28 11:01:11;;;;;;;18.58;9.32;;;;;;;7.47;67.83;97883.69;6008157;23;20560;-64
2022/11/28 11:03:36;;;;;;;18.38;10.52;;;;;;;7.49;67.28;97891.41;5983745;23;20115;-64
2022/11/28 11:06:02;;;;;;;19.17;10.18;;;;;;;7.49;67.02;97891.41;5960779;23;20035;-65
2022/11/28 11:08:29;;;;;;;16.08;9.85;;;;;;;7.54;67.64;97889.38;5984656;23;20028;-65
2022/11/28 11:11:09;;;;;;;17.15;8.98;;;;;;;7.63;68.40;97887.97;5984499;23;20012;-65
2022/11/28 11:13:58;;;;;;;15.70;8.02;;;;;;;7.70;67.98;97884.03;6007658;23;20012;-65
2022/11/28 11:16:23;;;;;;;15.88;9.18;;;;;;;7.77;67.60;97865.28;5961438;23;20035;-65
2022/11/28 11:18:48;;;;;;;14.68;8.05;;;;;;;7.85;67.28;97873.50;5984459;23;20003;-66
2022/11/28 11:21:24;;;;;;;15.40;9.05;;;;;;;7.94;66.76;97872.06;5984411;23;20177;-66
2022/11/28 11:24:08;;;;;;;14.38;8.13;;;;;;;8.02;66.85;97863.75;6007394;23;20012;-66
2022/11/28 11:26:36;;;;;;;17.50;8.98;;;;;;;8.09;66.19;97859.81;5987118;23;20007;-66
2022/11/28 11:29:04;;;;;;;16.20;8.55;;;;;;;8.18;66.47;97864.44;5960909;23;20015;-66
2022/11/28 11:31:45;;;;;;;14.73;8.50;;;;;;;8.26;65.76;97856.97;6017054;23;20490;-66
2022/11/28 11:34:15;;;;;;;14.23;8.00;;;;;;;8.37;66.02;97868.50;6076896;23;20002;-65
2022/11/28 11:36:40;;;;;;;16.45;8.82;;;;;;;8.41;65.16;97865.59;6075335;23;20012;-66
2022/11/28 11:39:26;;;;;;;14.80;9.07;;;;;;;8.48;64.96;97871.28;6075269;23;20332;-66
2022/11/28 11:42:00;;;;;;;13.80;8.48;;;;;;;8.51;64.73;97871.91;6098991;23;20033;-66
2022/11/28 11:44:28;;;;;;;16.83;9.10;;;;;;;8.54;64.42;97870.88;6125002;23;20002;-65
2022/11/28 11:47:07;;;;;;;15.93;8.77;;;;;;;8.58;64.29;97872.34;6075714;23;20009;-66
2022/11/28 11:49:35;;;;;;;15.02;9.25;;;;;;;8.58;64.29;97867.13;6099274;23;20002;-66
2022/11/28 11:52:11;;;;;;;16.00;9.45;;;;;;;8.61;64.34;97856.47;6076125;23;20077;-65
2022/11/28 11:54:37;;;;;;;16.33;9.35;;;;;;;8.65;64.31;97860.53;6100705;23;20025;-66
2022/11/28 11:57:02;;;;;;;15.63;8.75;;;;;;;8.69;64.13;97864.63;6098480;23;20384;-66
2022/11/28 11:59:43;;;;;;;15.82;8.43;;;;;;;8.72;64.29;97868.81;6075420;23;19998;-66
2022/11/28 12:02:24;;;;;;;15.55;9.02;;;;;;;8.74;64.14;97867.78;6075604;23;20081;-67
2022/11/28 12:04:52;;;;;;;15.65;9.00;;;;;;;8.78;64.43;97863.19;6077080;23;20006;-66
2022/11/28 12:07:29;;;;;;;14.15;8.52;;;;;;;8.80;64.30;97864.75;6075957;23;20009;-66
2022/11/28 12:09:54;;;;;;;16.30;8.90;;;;;;;8.83;64.17;97865.50;6099763;23;20009;-65
2022/11/28 12:12:24;;;;;;;17.13;9.50;;;;;;;8.85;63.63;97868.84;6074962;23;20006;-66
2022/11/28 12:14:50;;;;;;;15.20;8.10;;;;;;;8.85;63.43;97848.75;6099433;23;20479;-66
2022/11/28 12:17:43;;;;;;;15.60;8.68;;;;;;;8.88;64.28;97845.94;6098957;23;20012;-64
2022/11/28 12:20:23;;;;;;;16.50;8.80;;;;;;;8.91;64.02;97847.50;6099325;23;20005;-64
2022/11/28 12:22:57;;;;;;;14.82;9.18;;;;;;;8.92;63.86;97828.28;6075710;23;20002;-65
2022/11/28 12:25:24;;;;;;;16.27;9.23;;;;;;;8.93;63.79;97829.94;6099166;23;20017;-66
2022/11/28 12:27:53;;;;;;;17.83;9.20;;;;;;;8.92;63.80;97828.28;6098864;23;20006;-66
2022/11/28 12:30:44;;;;;;;16.30;9.70;;;;;;;8.91;63.34;97829.19;6124859;23;20454;-65
2022/11/28 12:33:19;;;;;;;17.10;9.33;;;;;;;8.91;63.96;97829.19;6102797;23;20073;-67
2022/11/28 12:36:09;;;;;;;15.07;8.75;;;;;;;8.87;63.82;97825.09;6099067;23;20006;-66
2022/11/28 12:38:46;;;;;;;15.57;9.00;;;;;;;8.85;63.57;97825.22;6084564;23;20545;-65
2022/11/28 12:41:30;;;;;;;15.27;8.70;;;;;;;8.84;63.54;97831.38;6076347;23;20036;-64
2022/11/28 12:44:10;;;;;;;15.60;8.93;;;;;;;8.83;63.95;97821.03;6124432;23;20077;-67
2022/11/28 12:47:17;;;;;;;15.25;8.80;;;;;;;8.77;63.69;97820.53;6077120;23;20002;-64
2022/11/28 12:49:48;;;;;;;16.58;9.27;;;;;;;8.76;63.77;97826.66;6102194;23;19998;-65
2022/11/28 12:52:35;;;;;;;18.13;9.65;;;;;;;8.72;64.47;97833.06;6074941;23;20443;-65
2022/11/28 12:55:19;;;;;;;19.42;10.32;;;;;;;8.70;64.64;97824.47;6124975;23;20339;-64
2022/11/28 12:57:58;;;;;;;17.48;9.25;;;;;;;8.69;64.50;97828.03;6124869;23;20516;-65
2022/11/28 13:00:24;;;;;;;16.92;9.68;;;;;;;8.68;64.64;97820.28;6098592;23;20002;-66
2022/11/28 13:03:05;;;;;;;16.48;8.95;;;;;;;8.66;64.58;97812.53;6075025;23;20340;-65
2022/11/28 13:05:37;;;;;;;15.48;9.10;;;;;;;8.66;64.68;97820.38;6125236;23;20029;-66
2022/11/28 13:08:11;;;;;;;;;;;;;;;8.65;64.88;97823.94;6098685;23;20436;-65
2022/11/28 13:11:01;;;;;;;18.45;9.45;;;;;;;8.65;65.00;97826.56;6098411;23;20007;-65
2022/11/28 13:13:30;;;;;;;16.58;9.50;;;;;;;8.63;65.19;97817.97;6124199;23;20024;-65
2022/11/28 13:15:59;;;;;;;15.30;8.90;;;;;;;8.62;64.95;97824.16;6075130;23;20013;-64
2022/11/28 13:18:31;;;;;;;15.77;9.77;;;;;;;8.58;64.91;97825.28;6124713;23;20006;-65
2022/11/28 13:21:15;;;;;;;16.23;8.85;;;;;;;8.54;64.88;97829.06;6098358;23;20504;-65
2022/11/28 13:23:49;;;;;;;16.15;8.98;;;;;;;8.52;65.36;97830.91;6100826;23;20463;-65
2022/11/28 13:26:33;;;;;;;16.80;8.98;;;;;;;8.46;65.70;97829.53;6124669;23;20061;-66
2022/11/28 13:29:03;;;;;;;17.27;9.43;;;;;;;8.43;65.56;97836.75;6098685;23;20002;-66
2022/11/28 13:31:54;;;;;;;14.82;8.95;;;;;;;8.39;65.76;97830.06;6074932;23;20009;-66
2022/11/28 13:34:19;;;;;;;16.58;9.27;;;;;;;8.35;66.08;97833.78;6083324;23;20012;-65
2022/11/28 13:36:48;;;;;;;16.35;9.05;;;;;;;8.30;65.68;97844.53;6074268;23;20010;-66
2022/11/28 13:39:13;;;;;;;17.33;9.25;;;;;;;8.24;66.12;97840.53;6098408;23;20064;-65
2022/11/28 13:41:45;;;;;;;17.52;9.85;;;;;;;8.19;66.61;97840.00;6124585;23;20002;-66
2022/11/28 13:44:14;;;;;;;16.48;9.20;;;;;;;8.13;66.37;97840.41;6050011;23;20096;-66
2022/11/28 13:46:41;;;;;;;16.35;9.07;;;;;;;8.08;67.12;97837.22;6124527;23;20072;-65
2022/11/28 13:49:18;;;;;;;16.00;9.40;;;;;;;8.04;67.65;97840.97;6076803;23;20433;-65
2022/11/28 13:51:43;;;;;;;17.13;9.00;;;;;;;8.00;67.62;97839.50;6077169;23;20332;-65
2022/11/28 13:54:21;;;;;;;16.17;9.00;;;;;;;7.97;68.24;97839.69;6125714;23;20093;-65
2022/11/28 13:57:06;;;;;;;15.23;9.02;;;;;;;7.96;68.73;97838.88;6126543;23;20073;-65
2022/11/28 13:59:32;;;;;;;17.77;9.68;;;;;;;7.96;68.10;97827.59;6066754;23;20089;-65
2022/11/28 14:02:01;;;;;;;18.30;10.15;;;;;;;7.93;68.51;97817.34;6100890;23;20006;-66
2022/11/28 14:04:27;;;;;;;14.13;8.48;;;;;;;7.93;68.92;97812.09;6100062;23;20420;-66
2022/11/28 14:07:01;;;;;;;16.35;9.52;;;;;;;7.94;68.76;97811.16;6100589;23;20048;-66
2022/11/28 14:09:32;;;;;;;16.75;9.48;;;;;;;7.96;69.73;97817.13;6076877;23;20074;-66
2022/11/28 14:12:18;;;;;;;15.13;8.90;;;;;;;7.93;68.77;97822.56;6126682;23;20006;-66
2022/11/28 14:15:04;;;;;;;17.42;8.60;;;;;;;7.88;68.93;97822.00;6101087;23;20111;-65
2022/11/28 14:17:56;;;;;;;18.13;9.60;;;;;;;7.85;70.13;97816.03;6100194;23;20032;-65
2022/11/28 14:20:47;;;;;;;16.55;9.20;;;;;;;7.82;69.53;97821.47;6100739;23;19998;-67
2022/11/28 14:23:42;;;;;;;16.40;9.30;;;;;;;7.77;69.99;97839.19;6110034;23;20010;-65
2022/11/28 14:26:24;;;;;;;19.85;10.63;;;;;;;7.70;69.75;97847.50;6099868;23;20029;-65
2022/11/28 14:28:50;;;;;;;20.33;10.63;;;;;;;7.64;69.94;97853.97;6075503;23;20010;-64
2022/11/28 14:31:32;;;;;;;19.00;10.25;;;;;;;7.55;70.61;97851.91;6076776;23;20048;-66
2022/11/28 14:34:02;;;;;;;17.63;9.52;;;;;;;7.53;70.77;97851.16;6099955;23;20006;-64
2022/11/28 14:36:34;;;;;;;15.45;8.35;;;;;;;7.50;71.24;97849.59;6076971;23;20002;-65
2022/11/28 14:39:31;;;;;;;20.83;11.27;;;;;;;7.47;71.05;97851.56;6075365;23;20354;-64
2022/11/28 14:42:03;;;;;;;17.70;10.02;;;;;;;7.46;71.22;97849.84;6076718;23;20052;-65
2022/11/28 14:44:49;;;;;;;19.48;10.70;;;;;;;7.41;71.63;97851.91;6125609;23;20447;-65
2022/11/28 14:47:41;;;;;;;19.08;10.32;;;;;;;7.38;71.94;97859.00;6126149;23;20005;-65
2022/11/28 14:50:06;;;;;;;18.80;10.05;;;;;;;7.34;72.06;97854.91;6125703;23;20013;-65
2022/11/28 14:52:39;;;;;;;17.17;9.70;;;;;;;7.31;72.00;97856.84;6126249;23;20030;-65
2022/11/28 14:55:11;;;;;;;17.50;9.38;;;;;;;7.27;72.25;97853.59;6100345;23;20013;-65
2022/11/28 14:57:50;;;;;;;15.60;9.45;;;;;;;7.25;72.22;97854.63;6099966;23;20068;-66
2022/11/28 15:00:19;;;;;;;16.90;9.48;;;;;;;7.19;72.84;97858.44;6100261;23;20013;-65
2022/11/28 15:02:54;;;;;;;16.98;9.35;;;;;;;7.17;72.78;97855.09;6075548;23;20432;-65
2022/11/28 15:05:39;;;;;;;17.05;9.48;;;;;;;7.12;73.33;97851.91;6125222;23;20057;-65
2022/11/28 15:08:28;;;;;;;18.63;9.68;;;;;;;7.08;73.54;97855.63;6099662;23;20052;-66
2022/11/28 15:11:20;;;;;;;17.00;9.40;;;;;;;7.10;74.43;97853.78;6099861;23;20060;-66
2022/11/28 15:13:54;;;;;;;16.40;9.18;;;;;;;7.04;74.33;97859.34;6109847;23;20006;-66
2022/11/28 15:16:19;;;;;;;19.27;10.88;;;;;;;7.00;74.17;97853.47;6125554;23;20012;-65
2022/11/28 15:18:54;;;;;;;18.73;9.63;;;;;;;6.97;74.21;97855.44;6125412;23;20006;-66
2022/11/28 15:21:21;;;;;;;16.58;9.40;;;;;;;6.96;74.55;97858.97;6076766;23;20005;-66
2022/11/28 15:23:46;;;;;;;17.85;9.57;;;;;;;6.92;74.71;97857.47;6125413;23;19998;-66
2022/11/28 15:26:20;;;;;;;18.92;10.02;;;;;;;6.87;74.67;97850.75;6099853;23;20017;-65
2022/11/28 15:28:45;;;;;;;17.90;9.95;;;;;;;6.84;75.20;97852.72;6076209;23;20397;-65
2022/11/28 15:31:19;;;;;;;18.70;10.50;;;;;;;6.81;75.89;97853.75;6124615;23;20008;-66
2022/11/28 15:33:44;;;;;;;19.10;10.18;;;;;;;6.78;76.03;97848.72;6076117;23;20029;-65
2022/11/28 15:36:36;;;;;;;22.20;11.57;;;;;;;6.73;76.31;97840.31;6125913;23;20339;-64
2022/11/28 15:39:01;;;;;;;18.45;10.93;;;;;;;6.70;77.55;97837.88;6071670;23;20009;-65
2022/11/28 15:41:27;;;;;;;18.92;10.52;;;;;;;6.74;78.44;97847.19;6098801;23;20130;-66
2022/11/28 15:43:53;;;;;;;17.27;9.77;;;;;;;6.75;77.34;97843.69;6074873;23;20313;-65
2022/11/28 15:46:33;;;;;;;17.52;10.20;;;;;;;6.76;77.64;97839.28;6075853;23;20004;-67
2022/11/28 15:49:00;;;;;;;18.50;10.40;;;;;;;6.72;77.57;97838.63;6100089;23;20376;-65
2022/11/28 15:51:32;;;;;;;17.35;10.07;;;;;;;6.71;78.10;97836.97;6099263;23;20009;-66
2022/11/28 15:53:58;;;;;;;17.33;10.05;;;;;;;6.65;78.53;97837.31;6074661;23;20340;-67
2022/11/28 15:56:24;;;;;;;19.25;11.00;;;;;;;6.65;78.50;97847.75;6075285;23;20006;-68
2022/11/28 15:58:50;;;;;;;17.83;10.90;;;;;;;6.61;78.30;97851.47;6124991;23;20010;-67
2022/11/28 16:01:25;;;;;;;19.60;12.05;;;;;;;6.57;78.29;97849.94;6051159;23;20006;-67
2022/11/28 16:04:11;;;;;;;19.83;11.15;;;;;;;6.54;79.45;97844.94;6074973;23;20085;-67
2022/11/28 16:06:37;;;;;;;18.63;10.45;;;;;;;6.52;79.22;97845.00;6075497;23;20009;-67
2022/11/28 16:09:08;;;;;;;19.10;11.30;;;;;;;6.51;79.41;97842.50;6099367;23;20313;-65
2022/11/28 16:11:33;;;;;;;19.43;11.43;;;;;;;6.47;79.46;97849.66;6075232;23;20058;-65
2022/11/28 16:14:00;;;;;;;18.30;10.43;;;;;;;6.45;79.82;97851.50;6074880;23;19994;-66
2022/11/28 16:16:29;;;;;;;17.92;10.75;;;;;;;6.45;79.82;97845.47;6074638;23;20005;-66
2022/11/28 16:18:58;;;;;;;19.38;10.25;;;;;;;6.41;79.93;97848.25;6074502;23;20006;-65
2022/11/28 16:21:27;;;;;;;18.35;10.77;;;;;;;6.40;80.09;97853.53;6075390;23;20002;-66
2022/11/28 16:23:52;;;;;;;17.77;10.02;;;;;;;6.39;80.29;97846.63;6075230;23;20010;-65
2022/11/28 16:26:26;;;;;;;20.42;11.43;;;;;;;6.38;80.74;97845.81;6125123;23;20006;-66
2022/11/28 16:29:16;;;;;;;18.90;11.35;;;;;;;6.36;80.51;97847.66;6076521;23;20006;-65
2022/11/28 16:31:42;;;;;;;20.75;10.82;;;;;;;6.35;80.34;97851.19;6102388;23;20206;-65
2022/11/28 16:34:11;;;;;;;18.08;10.82;;;;;;;6.32;80.77;97835.72;6074563;23;20428;-65
2022/11/28 16:36:37;;;;;;;22.35;12.57;;;;;;;6.34;80.32;97840.88;6099659;23;20001;-65
2022/11/28 16:39:15;;;;;;;19.60;11.15;;;;;;;6.35;80.94;97835.56;6075085;23;20001;-65
2022/11/28 16:41:50;;;;;;;20.70;12.48;;;;;;;6.32;80.65;97846.16;6077161;23;20013;-66
2022/11/28 16:44:18;;;;;;;19.80;11.05;;;;;;;6.27;80.35;97848.19;6075481;23;20002;-67
2022/11/28 16:46:52;;;;;;;19.73;11.13;;;;;;;6.28;80.19;97847.25;6075555;23;20001;-66
2022/11/28 16:49:35;;;;;;;20.20;10.98;;;;;;;6.25;80.20;97844.00;6098936;23;20006;-65
2022/11/28 16:52:26;;;;;;;21.60;11.57;;;;;;;6.25;80.71;97851.81;6124954;23;20081;-65
2022/11/28 16:54:52;;;;;;;18.65;10.38;;;;;;;6.25;81.11;97849.19;6123670;23;20006;-65
2022/11/28 16:57:19;;;;;;;19.70;11.30;;;;;;;6.24;81.30;97864.00;6099179;23;20006;-65
2022/11/28 16:59:44;;;;;;;20.58;11.57;;;;;;;6.22;81.20;97849.38;6099057;23;20432;-67
2022/11/28 17:02:20;;;;;;;24.67;13.02;;;;;;;6.20;80.89;97849.47;6075005;23;20052;-65
2022/11/28 17:04:47;;;;;;;20.52;12.02;;;;;;;6.20;81.35;97851.22;6098240;23;20009;-65
2022/11/28 17:07:17;;;;;;;19.15;11.57;;;;;;;6.19;81.19;97845.16;6099007;23;20010;-65
2022/11/28 17:09:44;;;;;;;23.83;13.43;;;;;;;6.17;81.71;97852.25;6074170;23;20041;-65
2022/11/28 17:12:15;;;;;;;27.15;16.70;;;;;;;6.18;81.46;97848.69;6074908;23;20006;-66
2022/11/28 17:14:42;;;;;;;26.52;14.85;;;;;;;6.17;81.31;97852.25;6124072;23;20002;-66
2022/11/28 17:17:14;;;;;;;27.23;15.70;;;;;;;6.14;81.81;97853.25;6123901;23;20340;-66
2022/11/28 17:19:40;;;;;;;22.42;12.60;;;;;;;6.13;81.92;97853.34;6124579;23;20021;-67
2022/11/28 17:22:05;;;;;;;33.05;16.95;;;;;;;6.11;82.11;97848.19;6123616;23;20317;-67
2022/11/28 17:24:34;;;;;;;53.05;25.98;;;;;;;6.12;81.80;97854.25;6074300;23;20002;-66
2022/11/28 17:26:59;;;;;;;51.47;24.98;;;;;;;6.10;81.74;97845.69;6098669;23;20392;-66
2022/11/28 17:29:26;;;;;;;50.50;25.70;;;;;;;6.12;81.84;97856.84;6124487;23;20001;-66
2022/11/28 17:31:53;;;;;;;56.33;26.98;;;;;;;6.11;82.00;97857.78;6122925;23;20002;-66
2022/11/28 17:34:23;;;;;;;170.48;54.13;;;;;;;6.07;81.65;97848.47;6123771;23;20463;-66
2022/11/28 17:36:49;;;;;;;125.18;54.53;;;;;;;6.08;82.33;97857.94;6075541;23;20494;-66
2022/11/28 17:39:14;;;;;;;51.33;28.27;;;;;;;6.06;82.17;97852.00;6124433;23;20001;-66
2022/11/28 17:41:40;;;;;;;30.27;21.08;;;;;;;6.07;82.75;97851.06;6074631;23;20010;-66
2022/11/28 17:44:05;;;;;;;26.23;14.93;;;;;;;6.12;84.51;97859.44;6122842;23;20077;-65
2022/11/28 17:46:31;;;;;;;21.10;13.07;;;;;;;6.11;83.08;97852.56;6098622;23;20008;-66
2022/11/28 17:48:59;;;;;;;21.58;12.95;;;;;;;6.09;82.64;97851.81;6124460;23;20368;-66
2022/11/28 17:51:25;;;;;;;22.38;13.30;;;;;;;6.05;82.40;97852.91;6075894;23;19998;-66
2022/11/28 17:53:50;;;;;;;21.98;13.45;;;;;;;6.04;82.36;97856.44;6097396;23;20078;-66
2022/11/28 17:56:15;;;;;;;21.48;12.45;;;;;;;6.03;82.45;97854.78;6123747;23;20383;-67
2022/11/28 17:58:41;;;;;;;24.27;15.43;;;;;;;6.01;82.71;97846.19;6124417;23;20013;-67
2022/11/28 18:01:10;;;;;;;29.58;19.60;;;;;;;5.99;82.72;97846.31;6098528;23;20336;-67
2022/11/28 18:03:36;;;;;;;28.70;19.17;;;;;;;5.99;82.54;97843.69;6123537;23;20068;-65
2022/11/28 18:06:01;;;;;;;25.35;17.52;;;;;;;5.98;82.43;97851.56;6123717;23;20420;-66
2022/11/28 18:08:26;;;;;;;25.95;15.32;;;;;;;5.94;82.64;97841.34;6124697;23;20002;-67
2022/11/28 18:11:05;;;;;;;23.95;15.40;;;;;;;5.93;82.33;97847.47;6124254;23;20010;-67
2022/11/28 18:13:30;;;;;;;23.48;13.57;;;;;;;5.90;82.55;97855.41;6098110;23;20049;-67
2022/11/28 18:15:56;;;;;;;24.63;15.30;;;;;;;5.89;82.60;97852.91;6097355;23;20076;-67
2022/11/28 18:18:21;;;;;;;26.52;16.95;;;;;;;5.86;82.62;97848.69;6124075;23;20006;-67
2022/11/28 18:20:47;;;;;;;21.60;13.45;;;;;;;5.87;82.78;97847.78;6074627;23;20397;-67
2022/11/28 18:23:13;;;;;;;28.95;20.50;;;;;;;5.86;82.92;97846.09;6123615;23;20005;-67